Aérodrome :
LOGIN :

S'inscrire | Disclaimer

   EN    FR    IT 

 










Légende :    VFR   VFR Marginal   IFR   IFR Intensif   IFR Très Intensif
Visi : 
Plafond : 
>= 8 km
>= 3000ft
5 à 8 km
1000 à 3000 ft
1500m à 5 km
500 à 1000 ft
800 à 1500m
200 à 500 ft
< 800m
< 200 ft
Symboles :   Orages  Brouillard  Fortes neiges  Fortes précipitations  Vent > 20 kt
SIGMETs :   Divers  Orages  Givrage  Turbulence  Onde Orograph.  Cendres Volcan.






- Altitude de l'aérodrome : 348 ft
- Code IATA : LDV


LFRJ - Landivisiau

DERNIER METAR :
  • 010200Z AUTO 05010KT CAVOK 03/01 Q1023

METARs EXPIRÉS :
  • 010130Z AUTO 06009KT CAVOK 04/02 Q1023
  • 010100Z AUTO 06010KT CAVOK 04/01 Q1023
  • 010030Z AUTO 05010KT CAVOK 04/01 Q1024
  • 010000Z AUTO 06009KT CAVOK 04/01 Q1024
  • 312330Z AUTO 06010KT CAVOK 04/01 Q1024 NOSIG
  • 312330Z AUTO 06010KT CAVOK 04/01 Q1024 NOSIG

TAF TAF LFRJ
Valide du 31 à 21h jusqu'au 01 à 06h UTC


312000Z 3121/0106 07015G25KT 9999 FEW025
BECMG 3123/0101 07009KT



MET'MAP, la Météo Aéronautique d'un coup d'oeil ! - Copyright ORBIFLY Décembre 2007 - Disclaimer

ORBIFLY MET'MAP TEAM :

Programmation & Développement : Alexandra Zaïnal
Sur une idée originale de : Baudouin d'Aumeries
Assistance à la programmation : Marc-Olivier Méhu
Soutien technique & logistique : Manuel Goepfert

Contact : metmap@orbifly.com




SOURCES & CREDITS :

   NOAA